地図

経路データ

SID SEASON NUMBER BASIN SUBBASIN NAME ISO_TIME NATURE LAT LON WMO_WIND WMO_PRES WMO_AGENCY TRACK_TYPE DIST2LAND LANDFALL IFLAG USA_AGENCY USA_ATCF_ID USA_LAT USA_LON USA_RECORD USA_STATUS USA_WIND USA_PRES USA_SSHS USA_R34_NE USA_R34_SE USA_R34_SW USA_R34_NW USA_R50_NE USA_R50_SE USA_R50_SW USA_R50_NW USA_R64_NE USA_R64_SE USA_R64_SW USA_R64_NW USA_POCI USA_ROCI USA_RMW USA_EYE TOKYO_LAT TOKYO_LON TOKYO_GRADE TOKYO_WIND TOKYO_PRES TOKYO_R50_DIR TOKYO_R50_LONG TOKYO_R50_SHORT TOKYO_R30_DIR TOKYO_R30_LONG TOKYO_R30_SHORT TOKYO_LAND CMA_LAT CMA_LON CMA_CAT CMA_WIND CMA_PRES HKO_LAT HKO_LON HKO_CAT HKO_WIND HKO_PRES NEWDELHI_LAT NEWDELHI_LON NEWDELHI_GRADE NEWDELHI_WIND NEWDELHI_PRES NEWDELHI_CI NEWDELHI_DP NEWDELHI_POCI REUNION_LAT REUNION_LON REUNION_TYPE REUNION_WIND REUNION_PRES REUNION_TNUM REUNION_CI REUNION_RMW REUNION_R34_NE REUNION_R34_SE REUNION_R34_SW REUNION_R34_NW REUNION_R50_NE REUNION_R50_SE REUNION_R50_SW REUNION_R50_NW REUNION_R64_NE REUNION_R64_SE REUNION_R64_SW REUNION_R64_NW BOM_LAT BOM_LON BOM_TYPE BOM_WIND BOM_PRES BOM_TNUM BOM_CI BOM_RMW BOM_R34_NE BOM_R34_SE BOM_R34_SW BOM_R34_NW BOM_R50_NE BOM_R50_SE BOM_R50_SW BOM_R50_NW BOM_R64_NE BOM_R64_SE BOM_R64_SW BOM_R64_NW BOM_ROCI BOM_POCI BOM_EYE BOM_POS_METHOD BOM_PRES_METHOD NADI_LAT NADI_LON NADI_CAT NADI_WIND NADI_PRES WELLINGTON_LAT WELLINGTON_LON WELLINGTON_WIND WELLINGTON_PRES DS824_LAT DS824_LON DS824_STAGE DS824_WIND DS824_PRES TD9636_LAT TD9636_LON TD9636_STAGE TD9636_WIND TD9636_PRES TD9635_LAT TD9635_LON TD9635_WIND TD9635_PRES TD9635_ROCI NEUMANN_LAT NEUMANN_LON NEUMANN_CLASS NEUMANN_WIND NEUMANN_PRES MLC_LAT MLC_LON MLC_CLASS MLC_WIND MLC_PRES USA_GUST BOM_GUST BOM_GUST_PER REUNION_GUST REUNION_GUST_PER USA_SEAHGT USA_SEARAD_NE USA_SEARAD_SE USA_SEARAD_SW USA_SEARAD_NW STORM_SPEED STORM_DIR
1931292N17275 1931 48 NA CS NOT_NAMED 1931-10-18 12:00:00 TS 17.2000 -85.5000 30 hurdat_atl main 145 145 O_____________ hurdat_atl AL101931 17.2000 -85.5000 TD 30 -1 11 43
1931292N17275 1931 48 NA CS NOT_NAMED 1931-10-18 15:00:00 TS 17.6026 -85.1079 main 190 190 P_____________ AL101931 17.6026 -85.1079 TD 32 -1 11 44
1931292N17275 1931 48 NA CS NOT_NAMED 1931-10-18 18:00:00 TS 18.0000 -84.7000 35 hurdat_atl main 235 235 O_____________ hurdat_atl AL101931 18.0000 -84.7000 TS 35 0 11 45
1931292N17275 1931 48 NA CS NOT_NAMED 1931-10-18 21:00:00 TS 18.3924 -84.2647 main 282 282 P_____________ AL101931 18.3924 -84.2647 TS 37 0 12 47
1931292N17275 1931 48 NA CS NOT_NAMED 1931-10-19 00:00:00 TS 18.8000 -83.8000 40 hurdat_atl main 308 251 O_____________ hurdat_atl AL101931 18.8000 -83.8000 TS 40 0 12 46
1931292N17275 1931 48 NA CS NOT_NAMED 1931-10-19 03:00:00 TS 19.2423 -83.3222 main 251 190 P_____________ AL101931 19.2423 -83.3222 TS 40 0 13 46
1931292N17275 1931 48 NA CS NOT_NAMED 1931-10-19 06:00:00 TS 19.7000 -82.8000 40 hurdat_atl main 190 154 O_____________ hurdat_atl AL101931 19.7000 -82.8000 TS 40 0 14 49
1931292N17275 1931 48 NA CS NOT_NAMED 1931-10-19 09:00:00 TS 20.1348 -82.2294 main 158 142 P_____________ AL101931 20.1348 -82.2294 TS 40 0 14 51
1931292N17275 1931 48 NA CS NOT_NAMED 1931-10-19 12:00:00 TS 20.6000 -81.6000 40 hurdat_atl main 145 102 O_____________ hurdat_atl AL101931 20.6000 -81.6000 TS 40 0 15 50
1931292N17275 1931 48 NA CS NOT_NAMED 1931-10-19 15:00:00 TS 21.1191 -80.9663 main 102 15 P_____________ AL101931 21.1191 -80.9663 TS 40 0 17 50
1931292N17275 1931 48 NA CS NOT_NAMED 1931-10-19 18:00:00 TS 21.7000 -80.2000 40 hurdat_atl main 15 0 O_____________ hurdat_atl AL101931 21.7000 -80.2000 TS 40 0 20 53
1931292N17275 1931 48 NA NA NOT_NAMED 1931-10-19 21:00:00 TS 22.3271 -79.2317 main 0 0 P_____________ AL101931 22.3271 -79.2317 TS 37 0 23 56
1931292N17275 1931 48 NA NA NOT_NAMED 1931-10-20 00:00:00 TS 23.0000 -78.1000 35 hurdat_atl main 84 84 O_____________ hurdat_atl AL101931 23.0000 -78.1000 TS 35 0 26 58
1931292N17275 1931 48 NA NA NOT_NAMED 1931-10-20 03:00:00 TS 23.6922 -76.8792 main 120 120 P_____________ AL101931 23.6922 -76.8792 TS 37 0 27 59
1931292N17275 1931 48 NA NA NOT_NAMED 1931-10-20 06:00:00 TS 24.4000 -75.6000 40 hurdat_atl main 212 212 O_____________ hurdat_atl AL101931 24.4000 -75.6000 TS 40 0 27 58
1931292N17275 1931 48 NA NA NOT_NAMED 1931-10-20 09:00:00 TS 25.1364 -74.3498 main 349 349 P_____________ AL101931 25.1364 -74.3498 TS 40 0 27 58
1931292N17275 1931 48 NA NA NOT_NAMED 1931-10-20 12:00:00 TS 25.8000 -73.1000 40 hurdat_atl main 484 484 O_____________ hurdat_atl AL101931 25.8000 -73.1000 TS 40 0 26 63
1931292N17275 1931 48 NA NA NOT_NAMED 1931-10-20 15:00:00 TS 26.3171 -71.8192 main 582 582 P_____________ AL101931 26.3171 -71.8192 TS 40 0 24 68
1931292N17275 1931 48 NA NA NOT_NAMED 1931-10-20 18:00:00 TS 26.7000 -70.6000 40 hurdat_atl main 661 661 O_____________ hurdat_atl AL101931 26.7000 -70.6000 TS 40 0 22 72
1931292N17275 1931 48 NA NA NOT_NAMED 1931-10-20 21:00:00 TS 26.9866 -69.4889 main 738 738 P_____________ AL101931 26.9866 -69.4889 TS 42 0 19 75
1931292N17275 1931 48 NA NA NOT_NAMED 1931-10-21 00:00:00 ET 27.2000 -68.5000 45 hurdat_atl main 810 810 O_____________ hurdat_atl AL101931 27.2000 -68.5000 EX 45 -4 17 76
1931292N17275 1931 48 NA NA NOT_NAMED 1931-10-21 03:00:00 ET 27.4060 -67.6417 main 882 882 P_____________ AL101931 27.4060 -67.6417 EX 45 -4 16 75
1931292N17275 1931 48 NA NA NOT_NAMED 1931-10-21 06:00:00 ET 27.6000 -66.8000 45 hurdat_atl main 951 951 O_____________ hurdat_atl AL101931 27.6000 -66.8000 EX 45 -4 16 76
1931292N17275 1931 48 NA NA NOT_NAMED 1931-10-21 09:00:00 ET 27.7914 -65.8592 main 1006 1006 P_____________ AL101931 27.7914 -65.8592 EX 47 -4 18 77
1931292N17275 1931 48 NA NA NOT_NAMED 1931-10-21 12:00:00 ET 28.0000 -64.8000 50 hurdat_atl main 1074 1074 O_____________ hurdat_atl AL101931 28.0000 -64.8000 EX 50 -4 20 78
1931292N17275 1931 48 NA NA NOT_NAMED 1931-10-21 15:00:00 ET 28.2190 -63.6161 main 1114 1114 P_____________ AL101931 28.2190 -63.6161 EX 52 -4 23 77
1931292N17275 1931 48 NA NA NOT_NAMED 1931-10-21 18:00:00 ET 28.5000 -62.3000 55 hurdat_atl main 1177 1177 O_____________ hurdat_atl AL101931 28.5000 -62.3000 EX 55 -4 25 75
1931292N17275 1931 48 NA NA NOT_NAMED 1931-10-21 21:00:00 ET 28.8614 -60.8941 main 1266 1266 P_____________ AL101931 28.8614 -60.8941 EX 55 -4 27 73
1931292N17275 1931 48 NA NA NOT_NAMED 1931-10-22 00:00:00 ET 29.3000 -59.4000 55 hurdat_atl main 1370 1370 O_____________ hurdat_atl AL101931 29.3000 -59.4000 EX 55 -4 28 71
1931292N17275 1931 48 NA NA NOT_NAMED 1931-10-22 03:00:00 ET 29.7917 -57.8499 main 1498 1498 P_____________ AL101931 29.7917 -57.8499 EX 55 -4 29 70
1931292N17275 1931 48 NA NA NOT_NAMED 1931-10-22 06:00:00 ET 30.3000 -56.3000 55 hurdat_atl main 1627 1627 O_____________ hurdat_atl AL101931 30.3000 -56.3000 EX 55 -4 28 69
1931292N17275 1931 48 NA NA NOT_NAMED 1931-10-22 09:00:00 ET 30.7938 -54.8052 main 1688 1688 P_____________ AL101931 30.7938 -54.8052 EX 55 -4 26 70
1931292N17275 1931 48 NA NA NOT_NAMED 1931-10-22 12:00:00 ET 31.2000 -53.4000 55 hurdat_atl main 1695 1691 O_____________ hurdat_atl AL101931 31.2000 -53.4000 EX 55 -4 24 74
1931292N17275 1931 48 NA NA NOT_NAMED 1931-10-22 15:00:00 ET 31.4494 -52.1148 main 1694 1677 P_____________ AL101931 31.4494 -52.1148 EX 55 -4 22 79
1931292N17275 1931 48 NA NA NOT_NAMED 1931-10-22 18:00:00 ET 31.6000 -50.9000 55 hurdat_atl main 1681 O_____________ hurdat_atl AL101931 31.6000 -50.9000 EX 55 -4 21 82

IBTrACS Databaseについて

本データベースは、米国NOAAが公開する1842年以降の世界の熱帯低気圧のベストトラックデータアーカイブInternational Best Track Archive for Climate Stewardship (IBTrACS)を、ウェブで閲覧しやすい形式に変換したものです。

最終更新日:2021-10-27